Time;durP1;ratioP1;P1;durP2;ratioP2;P2;SDS_P1;SDS_P2;PMS_P1;PMS_P2;Temp;Humidity;BMP_temperature;BMP_pressure;BME280_temperature;BME280_humidity;BME280_pressure;Samples;Min_cycle;Max_cycle;Signal;HPM_P1;HPM_P2
2021/10/24 00:00:43;;;;;;;14.07;5.85;;;;;;;3.80;76.77;102266.39;1696038;83;21026;-69
2021/10/24 00:03:12;;;;;;;14.70;4.25;;;;;;;3.78;76.84;102255.63;1717303;82;21072;-69
2021/10/24 00:05:38;;;;;;;14.93;5.47;;;;;;;3.76;76.80;102259.82;1721641;82;21032;-69
2021/10/24 00:08:05;;;;;;;10.90;4.10;;;;;;;3.74;76.82;102261.45;1732872;82;21509;-69
2021/10/24 00:10:31;;;;;;;11.88;4.65;;;;;;;3.71;76.82;102260.05;1699896;84;21106;-69
2021/10/24 00:12:57;;;;;;;13.80;4.47;;;;;;;3.68;76.77;102261.21;1733297;82;20923;-69
2021/10/24 00:15:25;;;;;;;17.05;4.83;;;;;;;3.62;76.72;102260.60;1729444;82;21500;-69
2021/10/24 00:17:51;;;;;;;16.20;5.45;;;;;;;3.58;76.81;102264.72;1726669;81;20991;-69
2021/10/24 00:20:17;;;;;;;18.98;6.40;;;;;;;3.56;76.81;102270.59;1722353;82;21054;-69
2021/10/24 00:22:47;;;;;;;18.95;6.92;;;;;;;3.51;76.93;102274.66;1732364;82;20998;-69
2021/10/24 00:25:13;;;;;;;17.87;6.70;;;;;;;3.50;76.95;102271.22;1717018;82;20997;-69
2021/10/24 00:27:39;;;;;;;10.40;4.30;;;;;;;;;;1730421;82;22014;-69
2021/10/24 00:30:07;;;;;;;14.13;4.23;;;;;;;3.44;76.86;102277.78;1700499;82;20989;-69
2021/10/24 00:32:33;;;;;;;9.28;3.40;;;;;;;3.37;76.79;102275.79;1735615;81;21544;-69
2021/10/24 00:34:59;;;;;;;8.08;3.25;;;;;;;3.30;76.82;102271.71;1684214;83;21458;-69
2021/10/24 00:37:26;;;;;;;11.78;4.17;;;;;;;3.27;76.81;102279.25;1714192;82;21020;-69
2021/10/24 00:39:52;;;;;;;10.88;4.10;;;;;;;3.23;76.89;102279.06;1676527;83;21056;-69
2021/10/24 00:42:26;;;;;;;11.18;4.60;;;;;;;3.21;76.91;102282.84;1724710;82;21068;-69
2021/10/24 00:44:52;;;;;;;9.87;3.80;;;;;;;3.14;76.82;102281.25;1736626;81;20966;-69
2021/10/24 00:47:18;;;;;;;9.27;3.90;;;;;;;3.09;76.90;102286.61;1726553;82;21549;-69
2021/10/24 00:49:44;;;;;;;9.70;3.60;;;;;;;3.04;76.90;102281.71;1712421;82;20928;-69
2021/10/24 00:52:11;;;;;;;13.33;3.40;;;;;;;2.97;76.78;102275.07;1725591;82;21246;-69
2021/10/24 00:54:39;;;;;;;4.05;2.58;;;;;;;2.91;76.73;102280.33;1733526;82;21041;-69
2021/10/24 00:57:05;;;;;;;5.55;2.80;;;;;;;2.83;76.74;102293.18;1685010;83;21525;-69
2021/10/24 00:59:32;;;;;;;8.35;4.08;;;;;;;2.77;76.80;102291.64;1703750;83;20971;-69
2021/10/24 01:01:58;;;;;;;6.65;3.02;;;;;;;2.70;76.80;102294.34;1703779;83;20967;-69
2021/10/24 01:04:24;;;;;;;5.07;1.87;;;;;;;2.64;76.79;102303.88;1697868;83;20971;-69
2021/10/24 01:06:52;;;;;;;6.65;2.95;;;;;;;2.60;76.87;102302.00;1715342;82;20958;-69
2021/10/24 01:09:23;;;;;;;4.78;2.70;;;;;;;2.55;76.85;102305.20;1729194;82;20880;-69
2021/10/24 01:11:51;;;;;;;3.80;2.37;;;;;;;2.46;76.78;102304.39;1722452;82;20950;-69
2021/10/24 01:14:18;;;;;;;3.95;2.33;;;;;;;2.41;76.85;102310.97;1733922;81;20923;-69
2021/10/24 01:16:44;;;;;;;6.53;2.30;;;;;;;2.37;76.86;102309.09;1727122;82;20958;-69
2021/10/24 01:19:13;;;;;;;5.22;2.58;;;;;;;2.32;76.86;102306.73;1710857;82;20954;-69
2021/10/24 01:21:39;;;;;;;5.47;2.77;;;;;;;2.28;76.88;102304.84;1730362;82;20883;-69
2021/10/24 01:24:06;;;;;;;7.03;2.47;;;;;;;2.25;76.89;102309.81;1703508;83;20991;-69
2021/10/24 01:26:35;;;;;;;6.22;2.47;;;;;;;2.21;76.93;102307.52;1697674;83;20943;-69
2021/10/24 01:29:01;;;;;;;5.78;3.10;;;;;;;2.18;76.92;102311.21;1685409;83;20895;-69
2021/10/24 01:31:28;;;;;;;8.63;4.58;;;;;;;2.11;76.83;102313.02;1733015;82;20975;-69
2021/10/24 01:33:55;;;;;;;9.30;3.98;;;;;;;2.08;76.90;102320.97;1722552;81;20930;-69
2021/10/24 01:36:21;;;;;;;7.27;3.57;;;;;;;2.02;76.90;102316.86;1718256;82;20848;-69
2021/10/24 01:38:53;;;;;;;5.42;3.42;;;;;;;1.98;76.93;102317.11;1701621;84;21621;-69
2021/10/24 01:41:20;;;;;;;9.35;4.33;;;;;;;1.96;76.99;102325.97;1719273;82;20966;-69
2021/10/24 01:43:47;;;;;;;9.95;3.62;;;;;;;1.94;76.99;102329.25;1733753;82;21550;-69
2021/10/24 01:46:14;;;;;;;7.67;3.50;;;;;;;1.92;77.01;102327.91;1702054;84;22039;-69
2021/10/24 01:48:43;;;;;;;7.00;3.52;;;;;;;1.91;77.00;102322.73;1725426;82;20986;-69
2021/10/24 01:51:10;;;;;;;7.30;3.58;;;;;;;1.87;76.95;102325.94;1700016;83;21118;-69
2021/10/24 01:53:40;;;;;;;7.45;3.12;;;;;;;1.82;76.94;102329.55;1702661;83;21468;-69
2021/10/24 01:56:08;;;;;;;10.63;3.83;;;;;;;1.78;76.93;102329.34;1698828;82;21448;-69
2021/10/24 01:58:35;;;;;;;7.70;3.17;;;;;;;1.71;76.91;102324.34;1713565;82;21009;-69
2021/10/24 02:01:01;;;;;;;;;;;;;;;1.68;76.95;102329.70;1708460;82;21065;-69
2021/10/24 02:03:27;;;;;;;;;;;;;;;1.66;77.14;102335.60;1714345;82;20443;-69
2021/10/24 02:05:53;;;;;;;7.92;2.95;;;;;;;1.64;77.12;102331.23;1711167;82;20820;-69
2021/10/24 02:08:20;;;;;;;8.15;2.87;;;;;;;1.60;76.97;102331.88;1722411;82;20933;-69
2021/10/24 02:10:46;;;;;;;3.55;2.50;;;;;;;1.57;77.01;102330.46;1702652;82;21673;-69
2021/10/24 02:13:19;;;;;;;6.12;3.17;;;;;;;1.54;77.02;102330.34;1707098;82;21393;-69
2021/10/24 02:15:45;;;;;;;6.37;3.10;;;;;;;1.54;77.04;102334.17;1703428;82;21065;-69
2021/10/24 02:18:13;;;;;;;7.20;3.20;;;;;;;1.52;77.07;102330.67;1716116;82;21587;-69
2021/10/24 02:20:41;;;;;;;5.87;3.12;;;;;;;1.50;77.03;102328.45;1705755;82;21498;-69
2021/10/24 02:23:08;;;;;;;5.40;3.08;;;;;;;1.45;77.03;102332.45;1713163;82;21512;-69
2021/10/24 02:25:35;;;;;;;5.55;2.80;;;;;;;1.42;77.08;102333.17;1683900;82;21507;-69
2021/10/24 02:28:02;;;;;;;;;;;;;;;1.41;77.06;102328.00;1709204;82;21036;-69
2021/10/24 02:30:28;;;;;;;5.22;2.85;;;;;;;1.37;77.11;102336.30;1697514;82;20466;-69
2021/10/24 02:32:55;;;;;;;7.25;3.20;;;;;;;1.33;77.03;102322.53;1723319;82;21444;-69
2021/10/24 02:35:24;;;;;;;6.60;3.30;;;;;;;1.30;77.11;102330.91;1702710;82;21487;-69
2021/10/24 02:37:49;;;;;;;10.88;4.28;;;;;;;1.27;77.03;102333.30;1715621;82;21091;-69
2021/10/24 02:40:15;;;;;;;5.62;3.47;;;;;;;1.24;77.09;102330.59;1713240;82;21616;-69
2021/10/24 02:42:42;;;;;;;8.75;3.77;;;;;;;1.24;77.08;102329.33;1710679;82;21446;-69
2021/10/24 02:45:08;;;;;;;10.55;4.05;;;;;;;1.21;77.10;102329.17;1722040;82;20929;-69
2021/10/24 02:47:35;;;;;;;;;;;;;;;1.19;77.07;102333.72;1708414;82;21323;-69
2021/10/24 02:50:01;;;;;;;10.23;3.50;;;;;;;1.15;77.25;102330.14;1701247;82;20448;-69
2021/10/24 02:52:27;;;;;;;7.60;3.42;;;;;;;1.14;77.12;102334.76;1713739;82;21818;-69
2021/10/24 02:54:54;;;;;;;12.07;3.50;;;;;;;1.13;77.17;102333.41;1705128;82;20970;-69
2021/10/24 02:57:21;;;;;;;8.78;3.20;;;;;;;1.12;77.18;102341.45;1713342;82;21406;-69
2021/10/24 02:59:47;;;;;;;4.95;2.85;;;;;;;1.12;77.13;102339.30;1720452;82;21375;-69
2021/10/24 03:02:13;;;;;;;8.98;3.45;;;;;;;1.10;77.16;102340.50;1704203;82;20874;-69
2021/10/24 03:04:39;;;;;;;7.12;3.80;;;;;;;1.09;77.13;102337.88;1694829;82;21703;-69
2021/10/24 03:07:05;;;;;;;6.87;2.72;;;;;;;1.05;77.10;102339.39;1721227;82;21192;-69
2021/10/24 03:09:31;;;;;;;4.05;2.83;;;;;;;1.04;77.18;102341.90;1717386;82;21399;-69
2021/10/24 03:11:57;;;;;;;4.90;3.23;;;;;;;1.03;77.23;102341.02;1729641;82;21631;-69
2021/10/24 03:14:23;;;;;;;6.35;2.72;;;;;;;1.01;77.15;102345.56;1710100;82;21330;-69
2021/10/24 03:16:49;;;;;;;7.80;2.90;;;;;;;0.97;77.14;102345.41;1719380;82;20954;-69
2021/10/24 03:19:16;;;;;;;7.37;3.17;;;;;;;0.95;77.15;102346.13;1727062;82;21405;-69
2021/10/24 03:21:42;;;;;;;11.57;3.92;;;;;;;0.94;77.22;102353.30;1728461;82;26076;-69
2021/10/24 03:24:08;;;;;;;6.47;3.08;;;;;;;0.93;77.22;102354.09;1696340;82;21398;-69
2021/10/24 03:26:34;;;;;;;6.62;2.80;;;;;;;0.93;77.21;102356.63;1731290;82;20834;-69
2021/10/24 03:29:06;;;;;;;9.00;3.52;;;;;;;0.94;77.22;102362.20;1729885;82;21560;-69
2021/10/24 03:31:32;;;;;;;7.72;3.05;;;;;;;0.93;77.21;102359.18;1689949;82;20973;-69
2021/10/24 03:33:58;;;;;;;9.08;3.15;;;;;;;0.92;77.25;102354.48;1717574;82;21457;-69
2021/10/24 03:36:25;;;;;;;10.60;3.67;;;;;;;0.93;77.28;102361.73;1706866;82;21491;-69
2021/10/24 03:38:51;;;;;;;9.30;4.28;;;;;;;0.92;77.28;102359.98;1686419;82;21075;-69
2021/10/24 03:41:18;;;;;;;6.90;2.77;;;;;;;0.90;77.25;102361.17;1718065;82;21650;-69
2021/10/24 03:43:44;;;;;;;;;;;;;;;0.87;77.29;102358.87;1714228;82;20982;-69
2021/10/24 03:46:11;;;;;;;6.62;3.12;;;;;;;0.84;77.37;102350.67;1711385;82;20470;-69
2021/10/24 03:48:37;;;;;;;7.40;3.08;;;;;;;0.83;77.27;102356.96;1718315;82;27801;-69
2021/10/24 03:51:03;;;;;;;5.15;2.72;;;;;;;0.81;77.31;102359.83;1708301;82;20985;-69
2021/10/24 03:53:43;;;;;;;7.12;3.47;;;;;;;0.80;77.27;102354.25;1707416;82;21033;-69
2021/10/24 03:56:09;;;;;;;5.50;3.47;;;;;;;0.81;77.33;102361.97;1727868;82;21363;-68
2021/10/24 03:58:35;;;;;;;7.78;3.02;;;;;;;0.80;77.31;102351.70;1714643;82;21021;-69
2021/10/24 04:01:03;;;;;;;7.28;3.47;;;;;;;0.79;77.33;102357.20;1709619;82;21520;-69
2021/10/24 04:03:32;;;;;;;6.45;2.85;;;;;;;0.76;77.31;102363.41;1713157;82;21006;-69
2021/10/24 04:05:58;;;;;;;6.05;2.92;;;;;;;0.76;77.35;102362.53;1710696;82;21473;-69
2021/10/24 04:08:25;;;;;;;6.72;2.98;;;;;;;0.74;77.33;102362.84;1709901;82;21012;-69
2021/10/24 04:10:51;;;;;;;4.93;2.70;;;;;;;0.72;77.34;102365.71;1708035;82;21020;-69
2021/10/24 04:13:17;;;;;;;7.90;3.60;;;;;;;0.71;77.35;102358.47;1713528;82;21024;-69
2021/10/24 04:15:43;;;;;;;6.97;2.90;;;;;;;0.66;77.53;102351.87;1710595;82;21451;-69
2021/10/24 04:18:09;;;;;;;9.83;3.62;;;;;;;0.72;77.39;102361.89;1712975;82;21057;-69
2021/10/24 04:20:35;;;;;;;;;;;;;;;0.71;77.35;102366.11;1727198;82;20898;-69
2021/10/24 04:23:01;;;;;;;10.32;4.58;;;;;;;0.70;77.41;102366.03;1724046;82;20186;-69
2021/10/24 04:25:27;;;;;;;8.85;3.58;;;;;;;0.66;77.30;102373.50;1729398;82;20908;-69
2021/10/24 04:27:54;;;;;;;8.58;3.42;;;;;;;0.63;77.35;102374.62;1727492;82;21536;-69
2021/10/24 04:30:21;;;;;;;13.13;4.28;;;;;;;0.63;77.44;102372.47;1717361;81;20895;-68
2021/10/24 04:32:47;;;;;;;;;;;;;;;0.64;77.46;102375.49;1731570;82;20880;-69
2021/10/24 04:35:15;;;;;;;7.03;4.08;;;;;;;0.63;77.51;102373.34;1722002;82;20205;-69
2021/10/24 04:37:41;;;;;;;11.90;4.83;;;;;;;0.62;77.42;102377.08;1729380;82;20943;-69
2021/10/24 04:40:09;;;;;;;11.93;3.98;;;;;;;0.60;77.45;102369.77;1698846;83;20936;-69
2021/10/24 04:42:38;;;;;;;8.93;4.90;;;;;;;0.61;77.48;102371.11;1708737;82;20920;-69
2021/10/24 04:45:06;;;;;;;10.80;4.75;;;;;;;0.61;77.47;102373.66;1711913;82;21425;-68
2021/10/24 04:47:33;;;;;;;10.03;4.25;;;;;;;0.62;77.54;102377.08;1711430;82;20902;-69
2021/10/24 04:49:59;;;;;;;10.10;4.00;;;;;;;0.61;77.48;102374.94;1718615;82;20934;-69
2021/10/24 04:52:25;;;;;;;8.25;4.03;;;;;;;0.59;77.45;102376.92;1722438;82;20918;-69
2021/10/24 04:54:51;;;;;;;7.20;3.55;;;;;;;0.56;77.49;102368.72;1730209;81;20915;-69
2021/10/24 04:57:17;;;;;;;7.43;3.73;;;;;;;0.58;77.53;102377.72;1719286;82;21192;-69
2021/10/24 04:59:45;;;;;;;7.90;3.60;;;;;;;0.59;77.53;102378.20;1729207;82;20892;-69
2021/10/24 05:02:11;;;;;;;7.83;4.03;;;;;;;0.60;77.49;102379.95;1729300;82;20951;-69
2021/10/24 05:04:38;;;;;;;9.00;4.37;;;;;;;0.59;77.46;102380.34;1693918;83;20923;-69
2021/10/24 05:07:05;;;;;;;8.30;4.55;;;;;;;0.58;77.47;102386.63;1714096;82;20910;-69
2021/10/24 05:09:31;;;;;;;7.92;4.10;;;;;;;0.57;77.50;102381.05;1726993;82;20925;-69
2021/10/24 05:11:57;;;;;;;12.37;4.10;;;;;;;0.57;77.54;102387.42;1730580;82;20852;-68
2021/10/24 05:14:23;;;;;;;9.65;4.12;;;;;;;0.57;77.51;102383.60;1708009;82;20966;-68
2021/10/24 05:16:49;;;;;;;10.48;4.58;;;;;;;0.55;77.55;102387.34;1730138;81;20991;-69
2021/10/24 05:19:15;;;;;;;7.60;3.77;;;;;;;0.55;77.56;102396.64;1697031;84;21023;-69
2021/10/24 05:21:41;;;;;;;11.45;4.12;;;;;;;0.54;77.53;102395.77;1718738;82;21070;-69
2021/10/24 05:24:07;;;;;;;10.93;5.12;;;;;;;0.54;77.53;102389.41;1726646;82;21042;-69
2021/10/24 05:26:33;;;;;;;11.28;4.67;;;;;;;0.57;77.64;102392.11;1703631;82;21753;-68
2021/10/24 05:28:59;;;;;;;10.77;4.70;;;;;;;0.59;77.58;102398.56;1728060;82;20931;-68
2021/10/24 05:31:26;;;;;;;7.45;4.20;;;;;;;0.57;77.52;102397.59;1716588;82;21466;-68
2021/10/24 05:33:55;;;;;;;9.55;4.87;;;;;;;0.54;77.50;102399.59;1704978;82;21060;-69
2021/10/24 05:36:21;;;;;;;14.25;5.10;;;;;;;0.50;77.48;102397.70;1589827;82;10001116;-68
2021/10/24 05:38:47;;;;;;;9.05;4.12;;;;;;;0.49;77.54;102401.04;1741294;81;21051;-68
2021/10/24 05:41:23;;;;;;;7.70;4.40;;;;;;;0.49;77.59;102395.95;1694853;83;21086;-68
2021/10/24 05:43:48;;;;;;;9.37;4.60;;;;;;;0.50;77.62;102402.80;1727633;82;21074;-68
2021/10/24 05:46:15;;;;;;;15.38;6.00;;;;;;;0.52;77.63;102401.60;1696724;84;21003;-68
2021/10/24 05:48:45;;;;;;;12.60;5.40;;;;;;;0.53;77.60;102402.92;1693304;84;21075;-68
2021/10/24 05:51:11;;;;;;;10.78;4.85;;;;;;;0.55;77.67;102408.09;1705359;82;22507;-68
2021/10/24 05:53:37;;;;;;;9.77;4.73;;;;;;;0.55;77.67;102407.70;1691729;83;20869;-68
2021/10/24 05:56:04;;;;;;;11.85;5.62;;;;;;;0.59;77.78;102414.70;1694148;83;21375;-68
2021/10/24 05:58:31;;;;;;;8.50;4.37;;;;;;;0.64;77.78;102409.86;1680338;83;20935;-68
2021/10/24 06:00:58;;;;;;;10.40;4.33;;;;;;;0.68;77.78;102413.44;1727912;81;20966;-68
2021/10/24 06:03:24;;;;;;;9.20;4.53;;;;;;;0.74;77.87;102418.86;1724073;82;20935;-68
2021/10/24 06:05:50;;;;;;;10.50;5.12;;;;;;;0.79;77.82;102424.67;1725901;82;20947;-69
2021/10/24 06:08:23;;;;;;;12.43;5.55;;;;;;;0.84;77.84;102419.42;1729368;82;20955;-68
2021/10/24 06:10:55;;;;;;;14.10;6.12;;;;;;;0.90;77.87;102427.39;1729218;82;21531;-68
2021/10/24 06:13:22;;;;;;;10.72;6.37;;;;;;;0.98;77.98;102428.66;1731338;82;21589;-68
2021/10/24 06:15:49;;;;;;;10.30;5.72;;;;;;;1.05;77.91;102431.09;1717211;82;20974;-68
2021/10/24 06:18:16;;;;;;;9.38;4.65;;;;;;;1.10;77.93;102438.58;1698716;82;20967;-68
2021/10/24 06:20:42;;;;;;;9.83;4.35;;;;;;;1.15;77.95;102429.90;1698759;82;20926;-69
2021/10/24 06:23:08;;;;;;;7.90;4.58;;;;;;;1.21;77.97;102436.19;1722510;82;20917;-68
2021/10/24 06:25:34;;;;;;;7.65;4.70;;;;;;;1.26;77.96;102436.02;1731373;81;20930;-69
2021/10/24 06:28:04;;;;;;;8.20;4.97;;;;;;;1.32;77.97;102442.70;1721546;82;20942;-69
2021/10/24 06:30:30;;;;;;;6.83;4.80;;;;;;;1.40;78.00;102448.59;1722722;82;20927;-71
2021/10/24 06:32:56;;;;;;;13.70;4.70;;;;;;;1.47;77.99;102449.38;1737863;81;21572;-71
2021/10/24 06:35:29;;;;;;;9.63;5.97;;;;;;;1.53;78.05;102448.41;1733876;80;20958;-71
2021/10/24 06:37:55;;;;;;;10.28;5.42;;;;;;;1.60;78.03;102458.95;1695719;82;21526;-72
2021/10/24 06:40:21;;;;;;;10.27;6.03;;;;;;;1.67;78.12;102457.59;1730127;82;20846;-72
2021/10/24 06:42:47;;;;;;;10.25;5.15;;;;;;;1.75;78.13;102463.95;1718958;81;20931;-71
2021/10/24 06:45:13;;;;;;;10.40;5.07;;;;;;;1.81;78.12;102472.30;1700241;82;20903;-71
2021/10/24 06:47:41;;;;;;;9.18;5.87;;;;;;;1.83;78.09;102472.85;1690543;82;20940;-72
2021/10/24 06:50:14;;;;;;;7.03;4.37;;;;;;;1.88;78.11;102475.62;1724344;82;20988;-72
2021/10/24 06:52:41;;;;;;;10.38;4.62;;;;;;;1.93;78.18;102479.28;1736083;81;20931;-72
2021/10/24 06:55:08;;;;;;;10.28;4.67;;;;;;;1.96;78.16;102480.31;1734208;81;20931;-72
2021/10/24 06:57:52;;;;;;;7.92;4.17;;;;;;;2.01;78.20;102484.36;1732933;81;20938;-73
2021/10/24 07:00:25;;;;;;;8.98;4.65;;;;;;;2.05;78.20;102487.53;1733343;81;20927;-72
2021/10/24 07:02:52;;;;;;;7.20;4.67;;;;;;;2.08;78.16;102488.92;1734108;80;20971;-73
2021/10/24 07:05:19;;;;;;;7.80;5.12;;;;;;;2.11;78.17;102488.20;1709024;81;20943;-72
2021/10/24 07:07:46;;;;;;;12.88;6.05;;;;;;;2.15;78.27;102496.08;1726652;81;20939;-72
2021/10/24 07:10:14;;;;;;;11.57;5.15;;;;;;;2.21;78.33;102495.50;1722973;81;20956;-72
2021/10/24 07:12:41;;;;;;;13.05;6.25;;;;;;;2.28;78.33;102494.99;1728686;81;20959;-72
2021/10/24 07:15:09;;;;;;;10.53;7.08;;;;;;;2.33;78.35;102493.14;1692851;83;21528;-72
2021/10/24 07:17:36;;;;;;;12.30;5.62;;;;;;;2.42;78.43;102496.93;1707967;82;20934;-72
2021/10/24 07:20:05;;;;;;;13.75;6.00;;;;;;;2.50;78.48;102495.21;1728480;81;20963;-72
2021/10/24 07:22:31;;;;;;;13.10;5.78;;;;;;;2.61;78.57;102493.12;1725922;81;20919;-72
2021/10/24 07:24:57;;;;;;;17.63;7.83;;;;;;;2.75;78.62;102489.94;1682073;83;20904;-72
2021/10/24 07:27:42;;;;;;;11.78;7.05;;;;;;;2.84;78.61;102490.36;1692254;83;21230;-72
2021/10/24 07:30:10;;;;;;;13.75;7.15;;;;;;;2.99;78.66;102491.05;1717003;81;20900;-72
2021/10/24 07:32:36;;;;;;;12.43;6.80;;;;;;;3.12;78.70;102497.59;1674282;83;20954;-72
2021/10/24 07:35:05;;;;;;;11.33;7.03;;;;;;;3.26;78.73;102495.20;1687014;83;20893;-72
2021/10/24 07:37:31;;;;;;;13.22;6.92;;;;;;;3.41;78.75;102495.00;1681123;83;20866;-72
2021/10/24 07:39:57;;;;;;;12.03;7.22;;;;;;;3.56;78.82;102496.94;1686735;83;20964;-72
2021/10/24 07:42:27;;;;;;;13.58;7.33;;;;;;;3.72;78.83;102497.16;1671594;83;20935;-72
2021/10/24 07:44:54;;;;;;;14.87;7.37;;;;;;;3.85;78.89;102490.46;1679324;83;20992;-72
2021/10/24 07:47:20;;;;;;;9.35;6.28;;;;;;;3.97;78.91;102490.56;1684151;83;21545;-72
2021/10/24 07:49:47;;;;;;;;;;;;;;;4.10;78.91;102499.62;1682824;83;20956;-72
2021/10/24 07:52:15;;;;;;;10.60;6.33;;;;;;;4.23;79.08;102497.98;1669044;83;20157;-72
2021/10/24 07:54:41;;;;;;;14.00;6.67;;;;;;;4.38;78.95;102500.70;1647672;85;20988;-72
2021/10/24 07:57:07;;;;;;;12.45;5.90;;;;;;;4.53;78.99;102502.17;1636075;85;20973;-72
2021/10/24 07:59:33;;;;;;;12.58;6.33;;;;;;;4.72;79.02;102501.16;1637877;85;20941;-72
2021/10/24 08:02:00;;;;;;;12.87;6.73;;;;;;;4.88;79.04;102503.48;1648385;86;21608;-72
2021/10/24 08:04:25;;;;;;;13.28;6.83;;;;;;;5.05;79.02;102504.12;1634480;85;20953;-72
2021/10/24 08:06:51;;;;;;;11.80;6.77;;;;;;;5.18;79.01;102501.19;1640525;85;21458;-72
2021/10/24 08:09:17;;;;;;;18.42;8.90;;;;;;;5.35;79.12;102503.05;1642524;85;20977;-72
2021/10/24 08:11:43;;;;;;;15.07;8.23;;;;;;;5.52;79.10;102499.38;1646129;85;20917;-72
2021/10/24 08:14:12;;;;;;;11.63;6.92;;;;;;;5.68;79.15;102499.91;1646600;85;20941;-72
2021/10/24 08:16:41;;;;;;;12.55;7.03;;;;;;;5.83;79.18;102493.58;1634289;85;20941;-72
2021/10/24 08:19:07;;;;;;;15.83;7.15;;;;;;;6.01;79.24;102497.20;1642391;85;20937;-72
2021/10/24 08:21:35;;;;;;;15.23;7.42;;;;;;;6.14;79.20;102499.34;1644941;85;20977;-72
2021/10/24 08:24:05;;;;;;;14.23;7.25;;;;;;;6.25;79.16;102494.11;1647164;85;20938;-72
2021/10/24 08:26:31;;;;;;;19.75;8.40;;;;;;;6.34;79.10;102494.81;1640684;85;20985;-72
2021/10/24 08:28:57;;;;;;;14.63;8.80;;;;;;;6.42;79.17;102497.21;1646147;85;20950;-72
2021/10/24 08:31:28;;;;;;;13.05;7.42;;;;;;;6.49;79.11;102493.14;1647746;86;20989;-72
2021/10/24 08:33:59;;;;;;;18.82;7.78;;;;;;;6.53;79.13;102497.13;1642933;84;1504918;-72
2021/10/24 08:36:28;;;;;;;17.32;7.80;;;;;;;6.57;79.07;102499.38;1687812;84;20947;-72
2021/10/24 08:38:57;;;;;;;13.80;7.58;;;;;;;6.59;79.09;102498.61;1681936;84;20945;-72
2021/10/24 08:41:28;;;;;;;16.00;7.53;;;;;;;6.65;79.18;102496.63;1674358;84;20929;-72
2021/10/24 08:43:58;;;;;;;14.85;8.33;;;;;;;6.68;79.10;102498.42;1680083;84;20916;-72
2021/10/24 08:46:25;;;;;;;20.02;8.55;;;;;;;6.71;79.20;102494.66;1687177;84;20882;-72
2021/10/24 08:48:52;;;;;;;18.75;8.33;;;;;;;6.76;79.16;102496.51;1681230;84;21112;-72
2021/10/24 08:51:19;;;;;;;23.02;9.28;;;;;;;6.80;79.18;102492.33;1681016;84;20934;-72
2021/10/24 08:53:49;;;;;;;15.90;8.50;;;;;;;6.84;79.20;102496.33;1680829;83;20953;-72
2021/10/24 08:56:23;;;;;;;19.35;9.53;;;;;;;6.89;79.20;102495.17;1682262;84;20921;-72
2021/10/24 08:58:52;;;;;;;21.90;10.43;;;;;;;6.94;79.19;102498.34;1685652;84;20863;-72
2021/10/24 09:01:19;;;;;;;19.23;10.18;;;;;;;6.96;79.13;102500.95;1659766;84;20924;-72
2021/10/24 09:04:07;;;;;;;18.40;10.20;;;;;;;7.00;79.11;102501.92;1651788;85;20939;-72
2021/10/24 09:06:56;;;;;;;26.05;11.65;;;;;;;7.03;79.14;102504.58;1655414;85;20948;-72
2021/10/24 09:09:31;;;;;;;21.73;11.03;;;;;;;7.04;79.14;102507.20;1645868;85;20948;-72
2021/10/24 09:12:02;;;;;;;23.02;10.35;;;;;;;7.10;79.22;102506.09;1656566;84;20928;-72
2021/10/24 09:14:53;;;;;;;21.35;10.08;;;;;;;7.19;79.29;102505.48;1665459;84;20932;-72
2021/10/24 09:17:31;;;;;;;22.62;11.88;;;;;;;7.29;79.31;102507.03;1666935;85;20928;-72
2021/10/24 09:20:01;;;;;;;17.40;9.68;;;;;;;7.41;79.31;102510.77;1662509;85;20940;-71
2021/10/24 09:22:36;;;;;;;23.52;10.32;;;;;;;7.49;79.25;102513.14;1663245;85;20900;-71
2021/10/24 09:25:19;;;;;;;20.92;10.68;;;;;;;7.55;79.29;102515.47;1642099;85;20963;-71
2021/10/24 09:27:53;;;;;;;19.80;9.13;;;;;;;7.65;79.40;102519.16;1666025;85;20896;-71
2021/10/24 09:30:34;;;;;;;22.75;8.93;;;;;;;7.75;79.28;102513.84;1653089;85;20952;-71
2021/10/24 09:33:10;;;;;;;15.10;8.88;;;;;;;7.81;79.18;102519.98;1659523;85;20928;-72
2021/10/24 09:35:42;;;;;;;20.88;8.78;;;;;;;7.89;79.24;102510.75;1658420;85;20939;-72
2021/10/24 09:38:16;;;;;;;18.98;8.35;;;;;;;8.00;79.27;102509.73;1656622;85;20924;-71
2021/10/24 09:40:51;;;;;;;15.43;8.68;;;;;;;8.10;79.26;102512.13;1670733;85;21079;-69
2021/10/24 09:43:24;;;;;;;18.12;9.23;;;;;;;8.18;79.23;102508.91;1666812;84;20964;-69
2021/10/24 09:46:05;;;;;;;22.82;10.38;;;;;;;8.29;79.25;102506.59;1664497;85;21439;-70
2021/10/24 09:48:34;;;;;;;19.80;9.18;;;;;;;8.39;79.23;102505.97;1672270;85;21455;-69
2021/10/24 09:51:11;;;;;;;18.35;8.85;;;;;;;8.47;79.17;102501.86;1670709;84;20904;-68
2021/10/24 09:53:50;;;;;;;19.30;8.73;;;;;;;8.55;79.16;102504.61;1672091;85;20916;-69
2021/10/24 09:56:19;;;;;;;17.70;8.43;;;;;;;8.65;79.17;102506.98;1668150;85;21003;-69
2021/10/24 09:58:48;;;;;;;19.48;7.60;;;;;;;8.74;79.08;102504.61;1673334;84;21105;-69
2021/10/24 10:01:18;;;;;;;13.62;7.87;;;;;;;8.81;79.04;102507.77;1673347;84;21132;-69
2021/10/24 10:03:47;;;;;;;15.53;9.08;;;;;;;8.86;78.98;102510.00;1668910;85;21114;-69
2021/10/24 10:06:14;;;;;;;16.45;9.53;;;;;;;8.92;78.97;102508.42;1673872;85;20960;-69
2021/10/24 10:08:44;;;;;;;22.95;9.08;;;;;;;8.98;78.94;102505.52;1671493;85;32474;-69
2021/10/24 10:11:41;;;;;;;19.48;9.15;;;;;;;9.04;78.98;102506.94;1672912;85;20928;-69
2021/10/24 10:14:14;;;;;;;16.65;8.55;;;;;;;9.11;78.94;102504.94;1680184;84;20895;-69
2021/10/24 10:16:51;;;;;;;18.92;7.65;;;;;;;9.12;78.84;102506.26;1681280;85;20926;-69
2021/10/24 10:19:27;;;;;;;18.32;8.33;;;;;;;9.15;78.82;102502.45;1680729;85;21526;-69
2021/10/24 10:21:54;;;;;;;15.80;7.12;;;;;;;9.20;78.82;102499.96;1678877;85;20963;-69
2021/10/24 10:24:43;;;;;;;16.50;7.78;;;;;;;9.24;78.79;102489.73;1682087;85;20998;-70
2021/10/24 10:27:37;;;;;;;15.85;7.87;;;;;;;9.26;78.74;102491.05;1677185;85;20927;-69
2021/10/24 10:30:14;;;;;;;18.00;7.97;;;;;;;9.29;78.79;102486.81;1559038;84;10000449;-70
2021/10/24 10:32:53;;;;;;;19.57;7.65;;;;;;;9.34;78.74;102492.48;1663679;85;20931;-70
2021/10/24 10:35:23;;;;;;;14.45;6.45;;;;;;;9.39;78.78;102486.96;1675554;85;20959;-69
2021/10/24 10:37:59;;;;;;;20.20;7.08;;;;;;;9.44;78.74;102486.63;1681019;84;20943;-70
2021/10/24 10:40:33;;;;;;;13.98;6.78;;;;;;;9.50;78.70;102486.31;1681605;85;20912;-70
2021/10/24 10:43:20;;;;;;;13.53;6.33;;;;;;;9.56;78.68;102485.14;1678670;84;20911;-70
2021/10/24 10:45:57;;;;;;;20.85;7.08;;;;;;;9.63;78.70;102482.25;1675958;85;20921;-70
2021/10/24 10:48:31;;;;;;;14.98;7.22;;;;;;;9.69;78.69;102478.48;1664540;85;26571;-72
2021/10/24 10:51:05;;;;;;;14.85;6.97;;;;;;;9.78;78.66;102478.64;1690205;83;20923;-71
2021/10/24 10:53:37;;;;;;;17.05;6.85;;;;;;;9.89;78.73;102481.37;1682716;84;20941;-71
2021/10/24 10:56:14;;;;;;;13.60;6.70;;;;;;;9.96;78.57;102468.58;1696593;84;20933;-71
2021/10/24 10:58:46;;;;;;;16.30;6.90;;;;;;;10.01;78.54;102471.67;1697315;84;20945;-71
2021/10/24 11:01:33;;;;;;;15.00;7.30;;;;;;;10.06;78.51;102467.02;1700799;84;20952;-71
2021/10/24 11:04:21;;;;;;;14.50;8.45;;;;;;;10.11;78.50;102464.51;1690938;84;21107;-69
2021/10/24 11:06:57;;;;;;;19.50;8.78;;;;;;;10.11;78.35;102461.92;1692463;84;21491;-69
2021/10/24 11:09:44;;;;;;;17.53;7.93;;;;;;;10.10;78.38;102455.88;1689293;83;20917;-69
2021/10/24 11:12:33;;;;;;;18.57;8.53;;;;;;;10.11;78.32;102458.05;1690655;84;21647;-69
2021/10/24 11:15:12;;;;;;;14.13;7.30;;;;;;;10.11;78.33;102449.88;1692749;84;20968;-69
2021/10/24 11:17:43;;;;;;;18.05;8.00;;;;;;;10.12;78.34;102452.03;1697584;84;21465;-69
2021/10/24 11:20:26;;;;;;;14.43;7.33;;;;;;;10.16;78.37;102450.81;1694537;84;21023;-69
2021/10/24 11:23:00;;;;;;;14.58;6.72;;;;;;;10.19;78.30;102454.77;1693548;84;20997;-72
2021/10/24 11:25:37;;;;;;;12.70;6.55;;;;;;;10.23;78.25;102462.14;1691493;84;21111;-69
2021/10/24 11:28:18;;;;;;;17.20;6.65;;;;;;;10.24;78.22;102456.13;1691897;84;20968;-69
2021/10/24 11:30:50;;;;;;;8.93;5.35;;;;;;;10.27;78.18;102462.64;1689255;84;21044;-69
2021/10/24 11:33:16;;;;;;;16.75;6.70;;;;;;;10.26;78.13;102457.02;1674733;84;21549;-69
2021/10/24 11:35:42;;;;;;;17.90;6.80;;;;;;;10.28;78.04;102450.16;1680795;84;21046;-69
2021/10/24 11:38:14;;;;;;;15.13;5.62;;;;;;;10.27;77.99;102450.58;1679706;84;21062;-69